Time;durP1;ratioP1;P1;durP2;ratioP2;P2;SDS_P1;SDS_P2;PMS_P1;PMS_P2;Temp;Humidity;BMP_temperature;BMP_pressure;BME280_temperature;BME280_humidity;BME280_pressure;Samples;Min_cycle;Max_cycle;Signal;HPM_P1;HPM_P2
2022/10/04 00:02:26;;;;;;;12.23;4.55;;;11.80;99.90;;;;;;4979854;28;20046;-58
2022/10/04 00:05:04;;;;;;;7.55;5.03;;;11.80;99.90;;;;;;4986828;28;20032;-57
2022/10/04 00:07:54;;;;;;;8.10;3.97;;;11.90;99.90;;;;;;4977313;28;20053;-58
2022/10/04 00:10:22;;;;;;;7.82;4.03;;;12.00;99.90;;;;;;4979792;28;20085;-57
2022/10/04 00:12:49;;;;;;;11.65;5.22;;;12.10;99.90;;;;;;4984676;28;20023;-59
2022/10/04 00:15:26;;;;;;;6.85;4.65;;;12.10;99.90;;;;;;4983313;28;20034;-60
2022/10/04 00:18:06;;;;;;;10.43;4.82;;;12.10;99.90;;;;;;4983834;28;20521;-59
2022/10/04 00:20:49;;;;;;;7.72;4.40;;;12.10;99.90;;;;;;4981659;28;20026;-59
2022/10/04 00:23:23;;;;;;;;;;;12.10;99.90;;;;;;4973033;28;20022;-58
2022/10/04 00:26:00;;;;;;;7.03;4.30;;;12.10;99.90;;;;;;4986906;28;19917;-60
2022/10/04 00:28:25;;;;;;;8.88;4.38;;;12.10;99.90;;;;;;4973812;28;20031;-59
2022/10/04 00:31:17;;;;;;;8.63;4.75;;;12.20;99.90;;;;;;4985511;28;20026;-59
2022/10/04 00:34:07;;;;;;;6.38;4.40;;;12.20;99.90;;;;;;4970326;28;20498;-59
2022/10/04 00:36:51;;;;;;;8.82;4.97;;;12.30;99.90;;;;;;4981384;28;20042;-58
2022/10/04 00:39:25;;;;;;;7.47;3.60;;;12.40;99.90;;;;;;4983040;28;20028;-58
2022/10/04 00:42:02;;;;;;;6.50;3.28;;;12.50;99.90;;;;;;4973286;28;20605;-58
2022/10/04 00:44:46;;;;;;;4.10;1.85;;;12.60;99.90;;;;;;4980917;28;20053;-58
2022/10/04 00:47:55;;;;;;;1.83;1.23;;;13.00;99.90;;;;;;4980985;28;20107;-58
2022/10/04 00:50:39;;;;;;;1.48;1.02;;;13.50;99.90;;;;;;4966875;28;20037;-60
2022/10/04 00:53:22;;;;;;;2.30;1.45;;;14.00;99.90;;;;;;4987861;28;20042;-58
2022/10/04 00:56:10;;;;;;;1.80;1.20;;;14.30;99.90;;;;;;4976461;28;20384;-59
2022/10/04 00:59:03;;;;;;;4.35;1.15;;;14.50;99.90;;;;;;4976420;28;20434;-59
2022/10/04 01:01:34;;;;;;;4.45;1.30;;;14.70;99.90;;;;;;4975529;28;20023;-59
2022/10/04 01:04:02;;;;;;;2.15;1.38;;;14.80;99.90;;;;;;4982770;28;20030;-58
2022/10/04 01:06:29;;;;;;;3.60;1.65;;;15.00;99.90;;;;;;4986730;28;20030;-59
2022/10/04 01:09:00;;;;;;;1.77;1.65;;;15.10;99.90;;;;;;4982731;28;20121;-58
2022/10/04 01:11:33;;;;;;;3.00;0.93;;;15.20;99.90;;;;;;4977478;28;20030;-58
2022/10/04 01:14:12;;;;;;;3.42;0.70;;;15.30;99.90;;;;;;4974474;28;20161;-59
2022/10/04 01:16:37;;;;;;;1.67;1.08;;;15.40;99.90;;;;;;4970981;28;20043;-59
2022/10/04 01:19:21;;;;;;;4.57;0.85;;;15.40;99.90;;;;;;4982879;28;20026;-59
2022/10/04 01:22:10;;;;;;;1.50;1.10;;;15.50;99.90;;;;;;4977266;28;20033;-61
2022/10/04 01:24:41;;;;;;;2.72;0.90;;;15.50;99.90;;;;;;4971650;28;20027;-60
2022/10/04 01:27:31;;;;;;;3.33;1.40;;;15.60;99.90;;;;;;4981960;28;20057;-57
2022/10/04 01:29:57;;;;;;;2.95;1.50;;;15.60;99.90;;;;;;4967382;28;20053;-59
2022/10/04 01:32:24;;;;;;;4.60;1.35;;;15.60;99.90;;;;;;4979950;28;20026;-58
2022/10/04 01:34:50;;;;;;;5.07;1.50;;;15.60;99.90;;;;;;4980477;28;20563;-58
2022/10/04 01:37:16;;;;;;;3.20;1.38;;;15.60;99.90;;;;;;4975359;28;20117;-58
2022/10/04 01:39:42;;;;;;;2.22;1.30;;;15.60;99.90;;;;;;4976159;28;20031;-59
2022/10/04 01:42:17;;;;;;;2.28;1.17;;;15.60;99.90;;;;;;4984030;28;20486;-58
2022/10/04 01:45:09;;;;;;;2.75;1.38;;;15.60;99.90;;;;;;4960649;28;20470;-58
2022/10/04 01:47:43;;;;;;;8.80;1.93;;;15.60;99.90;;;;;;4967974;28;20550;-58
2022/10/04 01:50:18;;;;;;;5.93;1.60;;;15.60;99.90;;;;;;4975407;28;20030;-58
2022/10/04 01:52:49;;;;;;;2.33;1.80;;;15.60;99.90;;;;;;4975032;28;20065;-59
2022/10/04 01:55:20;;;;;;;3.47;2.20;;;15.70;99.90;;;;;;4978005;28;20027;-59
2022/10/04 01:57:51;;;;;;;3.58;1.90;;;15.60;99.90;;;;;;4984434;28;20589;-59
2022/10/04 02:00:20;;;;;;;7.32;2.30;;;15.70;99.90;;;;;;4982289;28;20490;-59
2022/10/04 02:02:56;;;;;;;5.22;2.28;;;15.70;99.90;;;;;;4982001;28;20487;-58
2022/10/04 02:05:36;;;;;;;3.97;2.33;;;15.70;99.90;;;;;;4978025;28;20046;-59
2022/10/04 02:08:08;;;;;;;4.85;2.05;;;15.60;99.90;;;;;;4982392;28;20106;-58
2022/10/04 02:10:37;;;;;;;4.20;1.90;;;15.60;99.90;;;;;;4978082;28;20041;-58
2022/10/04 02:13:08;;;;;;;3.70;2.40;;;15.60;99.90;;;;;;4982478;28;20034;-59
2022/10/04 02:15:38;;;;;;;5.43;1.73;;;15.60;99.90;;;;;;4978138;28;20574;-59
2022/10/04 02:18:16;;;;;;;4.88;2.05;;;15.60;99.90;;;;;;4979914;28;20031;-59
2022/10/04 02:20:43;;;;;;;2.45;1.23;;;15.70;99.90;;;;;;4988035;28;20089;-59
2022/10/04 02:23:11;;;;;;;1.92;1.55;;;15.70;99.90;;;;;;4987870;28;20042;-59
2022/10/04 02:25:37;;;;;;;4.28;1.10;;;15.70;99.90;;;;;;4985020;28;20030;-59
2022/10/04 02:28:04;;;;;;;4.78;1.10;;;15.70;99.90;;;;;;4977353;28;20062;-59
2022/10/04 02:30:38;;;;;;;1.85;0.90;;;15.80;99.90;;;;;;4982353;28;20062;-59
2022/10/04 02:33:04;;;;;;;1.85;1.20;;;15.80;99.90;;;;;;4982467;28;20027;-59
2022/10/04 02:35:34;;;;;;;4.55;1.50;;;15.80;99.90;;;;;;4983208;28;20513;-59
2022/10/04 02:38:30;;;;;;;2.85;1.27;;;15.70;99.90;;;;;;4988943;28;20078;-59
2022/10/04 02:41:04;;;;;;;1.90;0.98;;;15.80;99.90;;;;;;4984073;28;20445;-59
2022/10/04 02:43:53;;;;;;;3.30;1.42;;;15.80;99.90;;;;;;4969355;28;20062;-58
2022/10/04 02:46:32;;;;;;;1.63;0.68;;;15.80;99.90;;;;;;4987285;28;20041;-59
2022/10/04 02:49:09;;;;;;;4.13;1.92;;;15.80;99.90;;;;;;4979281;28;20031;-58
2022/10/04 02:51:53;;;;;;;3.72;1.58;;;15.80;99.90;;;;;;4974194;28;20475;-59
2022/10/04 02:54:35;;;;;;;5.47;1.05;;;15.70;99.90;;;;;;4973640;28;20039;-59
2022/10/04 02:57:02;;;;;;;3.97;1.33;;;15.80;99.90;;;;;;4977742;28;20042;-58
2022/10/04 02:59:30;;;;;;;2.08;0.70;;;15.80;99.90;;;;;;4977621;28;20023;-59
2022/10/04 03:02:00;;;;;;;3.92;0.73;;;15.80;99.90;;;;;;4978898;28;20037;-58
2022/10/04 03:04:38;;;;;;;7.65;1.60;;;15.80;99.90;;;;;;4978269;28;20031;-59
2022/10/04 03:07:07;;;;;;;2.85;0.70;;;15.80;99.90;;;;;;4983891;28;20042;-59
2022/10/04 03:09:35;;;;;;;2.45;1.10;;;15.80;99.90;;;;;;4973415;28;20030;-60
2022/10/04 03:12:03;;;;;;;3.65;1.00;;;15.80;99.90;;;;;;4980524;28;20081;-59
2022/10/04 03:14:31;;;;;;;0.60;0.60;;;15.70;99.90;;;;;;4978732;28;20129;-60
2022/10/04 03:17:00;;;;;;;2.42;0.82;;;15.70;99.90;;;;;;4974770;28;20525;-59
2022/10/04 03:19:28;;;;;;;4.95;1.10;;;15.70;99.90;;;;;;4978318;28;20022;-58
2022/10/04 03:21:56;;;;;;;3.30;1.20;;;15.80;99.90;;;;;;4982143;28;20026;-58
2022/10/04 03:24:32;;;;;;;4.45;1.02;;;15.80;99.90;;;;;;4983327;28;20124;-58
2022/10/04 03:27:01;;;;;;;2.33;0.93;;;15.80;99.90;;;;;;4981604;28;20035;-58
2022/10/04 03:29:30;;;;;;;4.18;1.77;;;15.80;99.90;;;;;;4978697;28;20037;-59
2022/10/04 03:31:59;;;;;;;1.80;1.10;;;15.80;99.90;;;;;;4982676;28;20117;-58
2022/10/04 03:34:35;;;;;;;2.40;0.80;;;15.80;99.90;;;;;;4974951;28;20514;-59
2022/10/04 03:37:04;;;;;;;3.65;1.30;;;15.80;99.90;;;;;;4975365;28;20082;-58
2022/10/04 03:39:35;;;;;;;2.65;1.08;;;15.90;99.90;;;;;;4983918;28;20019;-59
2022/10/04 03:42:12;;;;;;;7.30;1.50;;;15.80;99.90;;;;;;4980829;28;20100;-58
2022/10/04 03:44:40;;;;;;;5.28;1.30;;;15.80;99.90;;;;;;4983557;28;20077;-59
2022/10/04 03:47:10;;;;;;;2.08;1.08;;;15.80;99.90;;;;;;4979420;28;20038;-58
2022/10/04 03:49:37;;;;;;;7.90;1.52;;;15.80;99.90;;;;;;4974355;28;20033;-59
2022/10/04 03:52:04;;;;;;;3.92;1.17;;;15.90;99.90;;;;;;4978243;28;20038;-59
2022/10/04 03:54:32;;;;;;;6.90;1.10;;;15.90;99.90;;;;;;4982957;28;20033;-59
2022/10/04 03:56:59;;;;;;;2.83;1.27;;;15.90;99.90;;;;;;4974595;28;20077;-60
2022/10/04 03:59:27;;;;;;;1.77;1.27;;;15.90;99.90;;;;;;4971832;28;20030;-59
2022/10/04 04:02:18;;;;;;;2.40;1.83;;;15.90;99.90;;;;;;4973667;28;20041;-58
2022/10/04 04:05:00;;;;;;;3.38;1.42;;;15.90;99.90;;;;;;4928941;29;20036;-59
2022/10/04 04:07:26;;;;;;;;;;;15.90;99.90;;;;;;4920386;29;20059;-58
2022/10/04 04:10:04;;;;;;;6.03;1.90;;;15.90;99.90;;;;;;4929499;29;19917;-60
2022/10/04 04:12:42;;;;;;;1.00;0.77;;;15.90;99.90;;;;;;4919649;29;20373;-59
2022/10/04 04:15:13;;;;;;;3.70;1.20;;;15.90;99.90;;;;;;4930712;29;20044;-59
2022/10/04 04:17:42;;;;;;;3.10;1.30;;;16.00;99.90;;;;;;4929127;29;20555;-59
2022/10/04 04:20:30;;;;;;;3.50;1.45;;;15.90;99.90;;;;;;4930301;29;20032;-59
2022/10/04 04:23:02;;;;;;;2.83;1.75;;;16.00;99.90;;;;;;4930384;29;20072;-59
2022/10/04 04:25:31;;;;;;;;;;;15.90;99.90;;;;;;4928746;29;20118;-59
2022/10/04 04:28:04;;;;;;;3.95;1.63;;;16.00;99.90;;;;;;4929986;29;19915;-59
2022/10/04 04:30:33;;;;;;;2.85;2.10;;;16.00;99.90;;;;;;4927606;29;20027;-59
2022/10/04 04:33:06;;;;;;;5.13;1.77;;;16.00;99.90;;;;;;4924250;29;20111;-59
2022/10/04 04:35:35;;;;;;;5.53;1.65;;;16.00;99.90;;;;;;4927565;29;20047;-58
2022/10/04 04:38:11;;;;;;;9.07;2.33;;;16.00;99.90;;;;;;4930175;29;20091;-58
2022/10/04 04:40:37;;;;;;;3.92;1.40;;;16.00;99.90;;;;;;4924258;28;20039;-58
2022/10/04 04:43:03;;;;;;;2.78;1.70;;;16.00;99.90;;;;;;4973417;28;20438;-59
2022/10/04 04:45:31;;;;;;;3.20;1.40;;;16.00;99.90;;;;;;4968390;28;20043;-59
2022/10/04 04:48:00;;;;;;;6.88;1.65;;;16.00;99.90;;;;;;4980174;28;20110;-59
2022/10/04 04:50:33;;;;;;;6.05;1.88;;;16.00;99.90;;;;;;4975839;28;20027;-59
2022/10/04 04:53:07;;;;;;;4.18;1.77;;;16.00;99.90;;;;;;4974548;28;20035;-61
2022/10/04 04:55:46;;;;;;;9.82;1.42;;;16.10;99.90;;;;;;4963404;28;20094;-58
2022/10/04 04:58:25;;;;;;;3.88;1.35;;;16.10;99.90;;;;;;4975997;28;20053;-58
2022/10/04 05:00:57;;;;;;;2.42;1.40;;;16.10;99.90;;;;;;4970818;28;20105;-58
2022/10/04 05:03:23;;;;;;;3.40;1.67;;;16.10;99.90;;;;;;4975284;28;20027;-58
2022/10/04 05:05:49;;;;;;;5.80;1.60;;;16.10;99.90;;;;;;4969586;28;20382;-58
2022/10/04 05:08:27;;;;;;;5.72;1.98;;;16.10;99.90;;;;;;4977404;28;20030;-59
2022/10/04 05:11:02;;;;;;;3.67;1.55;;;16.20;99.90;;;;;;4973350;28;20034;-58
2022/10/04 05:13:58;;;;;;;3.90;2.33;;;16.20;99.90;;;;;;4975906;28;20041;-58
2022/10/04 05:16:41;;;;;;;2.75;1.75;;;16.20;99.90;;;;;;4974444;28;20042;-59
2022/10/04 05:19:20;;;;;;;3.45;1.85;;;16.20;99.90;;;;;;4973485;28;20033;-59
2022/10/04 05:21:48;;;;;;;4.63;1.90;;;16.20;99.90;;;;;;4978883;28;20038;-58
2022/10/04 05:24:22;;;;;;;5.78;1.88;;;16.20;99.90;;;;;;4977462;28;20062;-58
2022/10/04 05:27:01;;;;;;;2.80;1.73;;;16.20;99.90;;;;;;4969775;28;20376;-59
2022/10/04 05:29:33;;;;;;;1.50;1.13;;;16.20;99.90;;;;;;4968997;28;20482;-59
2022/10/04 05:32:22;;;;;;;1.90;1.00;;;16.20;99.90;;;;;;4967396;28;20031;-59
2022/10/04 05:34:49;;;;;;;2.90;0.70;;;16.20;99.90;;;;;;4969757;28;20039;-57
2022/10/04 05:37:39;;;;;;;2.95;0.88;;;16.10;99.90;;;;;;4968220;28;20031;-58
2022/10/04 05:40:13;;;;;;;1.50;0.85;;;16.10;99.90;;;;;;4976172;28;20094;-59
2022/10/04 05:42:44;;;;;;;2.17;0.50;;;16.10;99.90;;;;;;4978598;28;20030;-58
2022/10/04 05:45:29;;;;;;;0.98;0.70;;;16.00;99.90;;;;;;4982864;28;20058;-59
2022/10/04 05:47:57;;;;;;;1.13;0.93;;;16.00;99.90;;;;;;4973412;28;20038;-58
2022/10/04 05:50:41;;;;;;;2.95;0.70;;;15.90;99.90;;;;;;4984108;28;20023;-59
2022/10/04 05:53:18;;;;;;;2.42;0.80;;;16.00;99.90;;;;;;4977725;28;20030;-58
2022/10/04 05:56:03;;;;;;;0.82;0.65;;;15.90;99.90;;;;;;4969950;28;20485;-58
2022/10/04 05:58:56;;;;;;;2.45;0.52;;;16.00;99.90;;;;;;4976857;28;20035;-58
2022/10/04 06:01:43;;;;;;;2.60;0.88;;;15.90;99.90;;;;;;4976842;28;20089;-57
2022/10/04 06:04:15;;;;;;;1.00;0.75;;;15.90;99.90;;;;;;4973281;28;20046;-58
2022/10/04 06:07:01;;;;;;;1.25;0.70;;;15.90;99.90;;;;;;4979147;28;20093;-59
2022/10/04 06:09:54;;;;;;;2.67;0.52;;;15.90;99.90;;;;;;4979351;28;20203;-59
2022/10/04 06:12:45;;;;;;;2.08;0.65;;;15.90;99.90;;;;;;4968304;28;20034;-58
2022/10/04 06:15:41;;;;;;;0.60;0.38;;;15.90;99.90;;;;;;4973233;28;20031;-58
2022/10/04 06:18:34;;;;;;;4.43;1.00;;;15.90;99.90;;;;;;4969620;28;20027;-58
2022/10/04 06:21:26;;;;;;;2.20;0.70;;;15.90;99.90;;;;;;4969019;28;20121;-59
2022/10/04 06:24:00;;;;;;;2.05;1.00;;;16.00;99.90;;;;;;4976831;28;20042;-59
2022/10/04 06:26:50;;;;;;;3.55;1.20;;;16.00;99.90;;;;;;4968278;28;20038;-57
2022/10/04 06:29:25;;;;;;;2.35;1.02;;;16.00;99.90;;;;;;4971958;28;20343;-59
2022/10/04 06:32:07;;;;;;;2.97;0.55;;;16.00;99.90;;;;;;4968786;28;20027;-60
2022/10/04 06:34:43;;;;;;;1.17;0.60;;;16.10;99.90;;;;;;4970402;28;20044;-59
2022/10/04 06:37:20;;;;;;;6.05;1.23;;;16.10;99.90;;;;;;4980792;28;20039;-59
2022/10/04 06:40:19;;;;;;;4.50;0.90;;;16.10;99.90;;;;;;4965231;28;20162;-60
2022/10/04 06:42:53;;;;;;;4.57;1.08;;;16.10;99.90;;;;;;4973452;28;20560;-57
2022/10/04 06:45:29;;;;;;;1.88;0.75;;;16.10;99.90;;;;;;4975840;28;21711;-58
2022/10/04 06:48:38;;;;;;;3.30;0.90;;;16.00;99.90;;;;;;4972136;28;20035;-58
2022/10/04 06:51:21;;;;;;;2.22;1.02;;;16.10;99.90;;;;;;4965478;28;20368;-58
2022/10/04 06:54:11;;;;;;;3.13;0.80;;;16.10;99.90;;;;;;4976426;28;20049;-58
2022/10/04 06:56:55;;;;;;;5.03;1.45;;;16.10;99.90;;;;;;4977880;28;20038;-58
2022/10/04 06:59:53;;;;;;;1.98;0.70;;;16.10;99.90;;;;;;4972314;28;20023;-58
2022/10/04 07:02:28;;;;;;;2.63;0.85;;;16.10;99.90;;;;;;4966960;28;20031;-58
2022/10/04 07:04:57;;;;;;;3.55;1.00;;;16.10;99.90;;;;;;4971601;28;20027;-58
2022/10/04 07:07:34;;;;;;;2.08;1.50;;;16.10;99.90;;;;;;4979368;28;20100;-58
2022/10/04 07:10:33;;;;;;;0.73;0.73;;;16.20;99.90;;;;;;4964269;28;20031;-58
2022/10/04 07:13:11;;;;;;;4.68;0.85;;;16.30;99.90;;;;;;4972002;28;20114;-57
2022/10/04 07:16:00;;;;;;;0.90;0.50;;;16.30;99.90;;;;;;4966484;28;20053;-58
2022/10/04 07:18:41;;;;;;;4.88;1.33;;;16.20;99.90;;;;;;4968604;28;20066;-58
2022/10/04 07:21:11;;;;;;;4.78;1.17;;;16.30;99.90;;;;;;4978583;28;20033;-58
2022/10/04 07:23:50;;;;;;;4.32;0.55;;;16.40;99.90;;;;;;4973612;28;20027;-59
2022/10/04 07:26:32;;;;;;;3.40;0.50;;;16.40;99.90;;;;;;4974337;28;20023;-60
2022/10/04 07:29:20;;;;;;;1.85;0.73;;;16.50;99.90;;;;;;4973730;28;20035;-59
2022/10/04 07:31:52;;;;;;;3.60;1.65;;;16.70;99.90;;;;;;4967974;28;20034;-58
2022/10/04 07:34:25;;;;;;;1.55;0.80;;;16.80;99.90;;;;;;4969225;28;20126;-58
2022/10/04 07:36:55;;;;;;;1.02;0.60;;;16.90;99.90;;;;;;4970299;28;20054;-59
2022/10/04 07:39:24;;;;;;;4.13;0.82;;;16.90;99.90;;;;;;4972509;28;20023;-59
2022/10/04 07:41:56;;;;;;;5.40;1.30;;;17.00;99.90;;;;;;4969039;28;20043;-59
2022/10/04 07:44:32;;;;;;;1.55;0.63;;;17.10;99.90;;;;;;4969585;28;20497;-60
2022/10/04 07:47:16;;;;;;;0.93;0.77;;;17.20;99.90;;;;;;4961695;28;20034;-58
2022/10/04 07:49:42;;;;;;;2.75;1.27;;;17.30;99.90;;;;;;4969980;28;20151;-58
2022/10/04 07:52:23;;;;;;;4.88;0.55;;;17.30;99.90;;;;;;4964009;28;20064;-59
2022/10/04 07:55:10;;;;;;;2.83;0.75;;;17.40;99.90;;;;;;4974828;28;20034;-58
2022/10/04 07:58:11;;;;;;;3.90;0.57;;;17.50;99.90;;;;;;4957946;28;20043;-58
2022/10/04 08:00:48;;;;;;;1.75;0.40;;;17.50;99.90;;;;;;4975069;28;20023;-58
2022/10/04 08:03:23;;;;;;;1.80;0.50;;;17.50;99.90;;;;;;4978493;28;20035;-57
2022/10/04 08:06:18;;;;;;;3.40;0.90;;;17.50;99.90;;;;;;4963850;28;20035;-58
2022/10/04 08:08:54;;;;;;;1.30;0.30;;;17.60;99.90;;;;;;4964170;28;20026;-58
2022/10/04 08:11:47;;;;;;;4.38;0.80;;;17.50;99.90;;;;;;4965421;28;20058;-57
2022/10/04 08:14:54;;;;;;;2.80;0.63;;;17.60;99.90;;;;;;4973951;28;20061;-58
2022/10/04 08:17:35;;;;;;;1.33;0.52;;;17.60;99.90;;;;;;4957944;28;20133;-59
2022/10/04 08:20:00;;;;;;;4.65;0.85;;;17.60;99.90;;;;;;4974771;28;20039;-60
2022/10/04 08:22:29;;;;;;;1.60;0.98;;;17.50;99.90;;;;;;4971713;28;20027;-60
2022/10/04 08:25:16;;;;;;;5.15;1.20;;;17.50;99.90;;;;;;4967053;28;20039;-59
2022/10/04 08:30:57;;;;;;;2.25;0.63;;;17.40;99.90;;;;;;4967988;28;20546;-58
2022/10/04 08:33:43;;;;;;;1.60;0.50;;;17.30;99.90;;;;;;4969927;28;20483;-59
2022/10/04 08:36:27;;;;;;;2.17;1.08;;;17.30;99.90;;;;;;4966059;28;20039;-59
2022/10/04 08:38:58;;;;;;;3.45;0.40;;;17.20;99.90;;;;;;4974442;28;20022;-60
2022/10/04 08:41:57;;;;;;;3.25;0.50;;;17.10;99.90;;;;;;4968421;28;20119;-59
2022/10/04 08:44:41;;;;;;;1.17;0.40;;;17.00;99.90;;;;;;4963147;28;20045;-58
2022/10/04 08:47:20;;;;;;;0.77;0.38;;;17.00;99.90;;;;;;4964014;28;20023;-58
2022/10/04 08:50:01;;;;;;;1.92;0.60;;;17.00;99.90;;;;;;4967858;28;20117;-60
2022/10/04 08:53:04;;;;;;;13.85;1.38;;;17.20;99.90;;;;;;4969320;28;20117;-59
2022/10/04 08:55:52;;;;;;;1.95;0.40;;;17.20;99.90;;;;;;4970000;28;20053;-58
2022/10/04 08:58:22;;;;;;;1.67;0.60;;;17.30;99.90;;;;;;4974783;28;20561;-59
2022/10/04 09:01:05;;;;;;;2.42;0.88;;;17.50;99.90;;;;;;4966731;28;20039;-58
2022/10/04 09:04:08;;;;;;;0.85;0.45;;;17.60;99.90;;;;;;4973825;28;20486;-58
2022/10/04 09:06:42;;;;;;;0.47;0.20;;;17.60;99.90;;;;;;4967103;28;20031;-59
2022/10/04 09:09:39;;;;;;;1.55;0.38;;;17.70;99.90;;;;;;4970990;28;20042;-58
2022/10/04 09:12:14;;;;;;;3.22;0.30;;;17.50;99.90;;;;;;4969263;28;20039;-59
2022/10/04 09:15:03;;;;;;;0.95;0.43;;;17.50;99.90;;;;;;4972343;28;20046;-58
2022/10/04 09:18:02;;;;;;;2.03;0.88;;;17.60;99.90;;;;;;4971801;28;20043;-58
2022/10/04 09:20:32;;;;;;;2.38;0.50;;;17.60;99.90;;;;;;4947841;28;20039;-58
2022/10/04 09:23:30;;;;;;;0.80;0.32;;;17.50;99.90;;;;;;4972321;28;20502;-58
2022/10/04 09:26:23;;;;;;;1.95;0.40;;;17.50;99.90;;;;;;4975526;28;20556;-57
2022/10/04 09:29:10;;;;;;;2.40;0.47;;;17.50;99.90;;;;;;4972011;28;20581;-60
2022/10/04 09:32:11;;;;;;;1.67;0.17;;;17.50;99.90;;;;;;4984387;28;20056;-60
2022/10/04 09:34:54;;;;;;;1.25;0.30;;;17.40;99.90;;;;;;4965620;28;20031;-59
2022/10/04 09:37:57;;;;;;;1.75;0.30;;;17.40;99.90;;;;;;4974184;28;20066;-59
2022/10/04 09:41:08;;;;;;;2.15;0.85;;;17.30;99.90;;;;;;4982662;28;20030;-60
2022/10/04 09:44:12;;;;;;;2.33;0.40;;;17.30;99.90;;;;;;4971398;28;20059;-61
2022/10/04 09:47:11;;;;;;;4.75;0.40;;;17.40;99.90;;;;;;4975918;28;20062;-60
2022/10/04 09:50:16;;;;;;;1.45;0.30;;;17.50;99.90;;;;;;4971557;28;20170;-59
2022/10/04 09:53:14;;;;;;;2.03;0.50;;;17.50;99.90;;;;;;4974793;28;20035;-58
2022/10/04 09:56:13;;;;;;;2.80;0.20;;;17.50;99.90;;;;;;4978906;28;20042;-59
2022/10/04 09:58:45;;;;;;;4.93;0.52;;;17.50;99.90;;;;;;4967490;28;20043;-59
2022/10/04 10:01:23;;;;;;;1.83;0.30;;;17.40;99.90;;;;;;4972828;28;20451;-58
2022/10/04 10:04:06;;;;;;;1.40;0.45;;;17.40;99.90;;;;;;4962155;28;20493;-59
2022/10/04 10:06:47;;;;;;;1.25;0.30;;;17.40;99.90;;;;;;4969687;28;20478;-59
2022/10/04 10:16:28;;;;;;;1.15;0.40;;;17.40;99.90;;;;;;4909331;29;20566;-57
2022/10/04 10:19:31;;;;;;;0.52;0.20;;;17.50;99.90;;;;;;4911489;29;20046;-58
2022/10/04 10:22:11;;;;;;;4.47;0.52;;;17.70;99.90;;;;;;4913187;29;20039;-58
2022/10/04 10:24:46;;;;;;;4.68;0.43;;;18.20;99.90;;;;;;4912211;29;20404;-58
2022/10/04 10:27:29;;;;;;;0.75;0.28;;;18.50;99.90;;;;;;4912794;29;20023;-58
2022/10/04 10:30:02;;;;;;;1.05;0.30;;;18.60;99.90;;;;;;4912746;29;20094;-58
2022/10/04 10:33:01;;;;;;;2.58;0.25;;;18.50;99.90;;;;;;4910767;29;20036;-59
2022/10/04 10:35:44;;;;;;;0.68;0.20;;;18.40;99.90;;;;;;4914778;29;20555;-59
2022/10/04 10:38:28;;;;;;;0.50;0.10;;;18.20;99.90;;;;;;4916013;29;20107;-60
2022/10/04 10:41:18;;;;;;;0.20;0.13;;;17.90;99.90;;;;;;4915473;29;20035;-58
2022/10/04 10:44:10;;;;;;;0.55;0.40;;;17.90;99.90;;;;;;4918879;29;20040;-59
2022/10/04 10:47:00;;;;;;;1.92;0.60;;;18.00;99.90;;;;;;4916379;29;20096;-60
2022/10/04 10:49:43;;;;;;;3.75;0.40;;;18.10;99.90;;;;;;4915067;29;20071;-58
2022/10/04 10:52:24;;;;;;;1.00;0.40;;;18.20;99.90;;;;;;4964479;28;20131;-58
2022/10/04 10:55:01;;;;;;;2.63;1.00;;;17.90;99.90;;;;;;4964646;28;20035;-62
2022/10/04 10:58:14;;;;;;;1.00;0.30;;;17.80;99.90;;;;;;4979031;28;20077;-58
2022/10/04 11:01:05;;;;;;;8.15;0.60;;;17.60;99.90;;;;;;4966549;28;20031;-59
2022/10/04 11:03:52;;;;;;;1.43;0.20;;;17.80;99.90;;;;;;4966818;28;20057;-59
2022/10/04 11:07:02;;;;;;;2.67;0.63;;;18.00;99.90;;;;;;4968482;28;20407;-58
2022/10/04 11:09:28;;;;;;;2.35;0.40;;;18.30;99.90;;;;;;4982942;28;20257;-58
2022/10/04 11:12:11;;;;;;;0.90;0.60;;;18.50;99.90;;;;;;4963821;28;20169;-60
2022/10/04 11:14:49;;;;;;;0.50;0.20;;;18.70;99.90;;;;;;4963832;28;20078;-59
2022/10/04 11:17:26;;;;;;;3.17;0.70;;;18.70;99.90;;;;;;4968039;28;20148;-57
2022/10/04 11:20:25;;;;;;;2.20;0.40;;;18.70;99.90;;;;;;4963759;28;20081;-59
2022/10/04 11:23:12;;;;;;;3.28;0.45;;;18.90;99.90;;;;;;4972606;28;20502;-59
2022/10/04 11:25:50;;;;;;;1.60;0.40;;;18.80;99.90;;;;;;4971577;28;20084;-59
2022/10/04 11:28:57;;;;;;;4.45;0.73;;;18.90;99.90;;;;;;4974426;28;20520;-59
2022/10/04 11:31:57;;;;;;;0.35;0.30;;;18.80;99.90;;;;;;4949094;28;20069;-58
2022/10/04 11:34:43;;;;;;;1.95;0.70;;;18.90;99.90;;;;;;4969549;28;20038;-59
2022/10/04 11:37:12;;;;;;;1.85;0.57;;;18.90;99.90;;;;;;4966672;28;20051;-59
2022/10/04 11:40:13;;;;;;;0.28;0.20;;;18.70;99.90;;;;;;4975616;28;20054;-63
2022/10/04 11:42:56;;;;;;;2.03;0.57;;;18.70;99.90;;;;;;4972877;28;20035;-59
2022/10/04 11:45:48;;;;;;;1.08;0.65;;;18.90;99.90;;;;;;4973484;28;20134;-58
2022/10/04 11:48:52;;;;;;;4.93;0.32;;;19.00;99.90;;;;;;4967504;28;20395;-59
2022/10/04 11:51:43;;;;;;;0.15;0.10;;;19.20;99.90;;;;;;4965423;28;20039;-58
2022/10/04 11:54:38;;;;;;;2.97;0.43;;;19.10;99.90;;;;;;4970648;28;20487;-58
2022/10/04 11:57:33;;;;;;;2.35;0.80;;;19.40;99.90;;;;;;4971613;28;20039;-59
2022/10/04 12:00:09;;;;;;;2.78;0.40;;;19.50;99.90;;;;;;4962956;28;20058;-59
2022/10/04 12:03:04;;;;;;;1.15;0.30;;;19.70;99.90;;;;;;4958946;28;20582;-59
2022/10/04 12:05:32;;;;;;;4.68;0.80;;;19.60;99.90;;;;;;4969403;28;20031;-59
2022/10/04 12:08:20;;;;;;;4.10;0.63;;;19.40;99.90;;;;;;4975539;28;20043;-59
2022/10/04 12:11:14;;;;;;;3.08;0.30;;;19.20;99.90;;;;;;4966885;28;21096;-60
2022/10/04 12:14:09;;;;;;;2.58;0.30;;;19.20;99.90;;;;;;4973661;28;20552;-58
2022/10/04 12:17:07;;;;;;;0.82;0.40;;;19.40;99.90;;;;;;4969065;28;20513;-58
2022/10/04 12:19:44;;;;;;;0.55;0.55;;;19.10;99.90;;;;;;4966857;28;20121;-62
2022/10/04 12:22:16;;;;;;;1.00;0.35;;;19.20;99.90;;;;;;4970450;28;20057;-60
2022/10/04 12:24:44;;;;;;;2.67;0.55;;;19.30;99.90;;;;;;4974607;28;20037;-58
2022/10/04 12:27:47;;;;;;;2.20;0.30;;;19.10;99.90;;;;;;4969789;28;20070;-60
2022/10/04 12:30:27;;;;;;;0.20;0.20;;;18.90;99.90;;;;;;4970873;28;20023;-59
2022/10/04 12:33:16;;;;;;;1.45;0.50;;;18.90;99.90;;;;;;4973838;28;20126;-58
2022/10/04 12:36:12;;;;;;;0.82;0.30;;;19.00;99.90;;;;;;4977821;28;20100;-60
2022/10/04 12:39:07;;;;;;;1.27;0.57;;;19.10;99.90;;;;;;4928132;29;20074;-58
2022/10/04 12:42:09;;;;;;;2.15;0.63;;;18.90;99.90;;;;;;4922407;29;20031;-59
2022/10/04 12:44:51;;;;;;;1.52;0.40;;;18.70;99.90;;;;;;4928042;29;20187;-61
2022/10/04 12:47:52;;;;;;;1.00;0.35;;;18.30;99.90;;;;;;4929910;29;20043;-59
2022/10/04 12:50:34;;;;;;;2.30;0.63;;;18.30;99.90;;;;;;4929030;29;20036;-59
2022/10/04 12:53:23;;;;;;;2.22;0.70;;;18.40;99.90;;;;;;4929871;29;20089;-59
2022/10/04 12:56:03;;;;;;;3.00;0.88;;;18.30;99.90;;;;;;4925502;29;20106;-59
2022/10/04 12:58:50;;;;;;;1.33;0.45;;;18.20;99.90;;;;;;4919273;29;20039;-59
2022/10/04 13:01:37;;;;;;;1.98;1.00;;;18.20;99.90;;;;;;4927926;29;20388;-60
2022/10/04 13:04:22;;;;;;;0.82;0.35;;;18.00;99.90;;;;;;4921604;29;20114;-60
2022/10/04 13:07:09;;;;;;;2.40;0.40;;;17.90;99.90;;;;;;4925688;29;20047;-59
2022/10/04 13:09:57;;;;;;;2.88;0.50;;;17.70;99.90;;;;;;4927902;29;20071;-59
2022/10/04 13:12:51;;;;;;;2.15;0.55;;;17.80;99.90;;;;;;4926653;29;20015;-60
2022/10/04 13:15:29;;;;;;;2.00;0.60;;;17.90;99.90;;;;;;4943164;28;20061;-59
2022/10/04 13:18:21;;;;;;;2.72;0.63;;;18.00;99.90;;;;;;4969673;28;20364;-59
2022/10/04 13:21:40;;;;;;;1.95;0.43;;;18.10;99.90;;;;;;4965522;28;20601;-59
2022/10/04 13:24:29;;;;;;;1.05;0.35;;;18.10;99.90;;;;;;4893640;29;20548;-58
2022/10/04 13:27:01;;;;;;;1.88;0.43;;;18.20;99.90;;;;;;4907785;29;20043;-59
2022/10/04 13:30:14;;;;;;;2.90;0.75;;;18.30;99.90;;;;;;4905334;29;20060;-60
2022/10/04 13:33:11;;;;;;;0.40;0.28;;;18.40;99.90;;;;;;4899601;29;20592;-59
2022/10/04 13:35:53;;;;;;;1.33;0.50;;;18.40;99.90;;;;;;4905248;29;20036;-60
2022/10/04 13:38:36;;;;;;;;;;;18.60;99.90;;;;;;4910879;29;20087;-60
2022/10/04 13:41:14;;;;;;;5.35;1.63;;;18.80;99.90;;;;;;4908753;29;19911;-59
2022/10/04 13:44:13;;;;;;;1.85;0.98;;;18.90;99.90;;;;;;4908180;29;20063;-59
2022/10/04 13:46:57;;;;;;;2.20;0.70;;;18.80;99.90;;;;;;4907541;29;20239;-61
2022/10/04 13:49:54;;;;;;;0.80;0.57;;;18.40;99.90;;;;;;4907963;29;20035;-59
2022/10/04 13:58:38;;;;;;;;;;;17.70;99.90;;;;;;4975606;28;21255;-59
2022/10/04 14:01:23;;;;;;;2.63;0.88;;;17.60;99.90;;;;;;4975810;28;19951;-59
2022/10/04 14:04:08;;;;;;;2.65;0.45;;;17.50;99.90;;;;;;4970958;28;20079;-59
2022/10/04 14:06:57;;;;;;;1.05;0.40;;;17.50;99.90;;;;;;4978668;28;20093;-59
2022/10/04 14:10:03;;;;;;;7.35;0.52;;;17.50;99.90;;;;;;4970699;28;20035;-59
2022/10/04 14:12:58;;;;;;;2.95;0.30;;;17.40;99.90;;;;;;4970384;28;20190;-59
2022/10/04 14:15:45;;;;;;;2.45;0.50;;;17.40;99.90;;;;;;4982302;28;20039;-58
2022/10/04 14:18:30;;;;;;;1.95;0.40;;;17.30;99.90;;;;;;4971237;28;20467;-59